Betagas — V2KA8 — position and weather

sailwx.info

Track history (hours):
 
Tides and Currents Weather Stations Pressure Air Temp Water Temp Dewpoint Dewpoint Depression Visibility Wind Speed Wind Dir Waves Ship Positions

Betagas

Last reported at 2014-Oct-23 01:11 UTC. Time now 2014-Oct-23 06:05 UTC.
Position N 50°26' W 000°25'.

Length 114.6 m; beam 15.7 m; draft 7.4 m.

Type: Tanker. MMSI: 304050636.

Date/timePositionNaut miles runAvg speedWind from/ knotsBaromVisibWave heightAir tempDewpointWater temp
2014-Oct-23 01:11N 50°26' W 000°25'1412.4
2014-Oct-23 00:05N 50°30' W 000°04'811.8
2014-Oct-22 23:24N 50°33' E 000°08'911.1
2014-Oct-22 22:33N 50°35' E 000°22'1010.0
2014-Oct-22 21:33N 50°39' E 000°37'10 9.9
2014-Oct-22 20:33N 50°45' E 000°49'1010.2
2014-Oct-22 19:33N 50°51' E 001°03'1211.9
2014-Oct-22 18:33N 50°58' E 001°17'1413.7
2014-Oct-22 17:33N 51°07' E 001°33'1312.8
2014-Oct-22 16:33N 51°16' E 001°48'1111.2
2014-Oct-22 15:33N 51°25' E 001°60'1110.9
2014-Oct-22 14:34N 51°21' E 002°16'10 9.6
2014-Oct-22 13:33N 51°23' E 002°31'8 7.7
2014-Oct-22 12:30N 51°23' E 002°44'1111.7
2014-Oct-22 11:33N 51°24' E 003°01'1111.2
2014-Oct-22 10:33N 51°24' E 003°19'1111.2
2014-Oct-22 09:34N 51°25' E 003°37'0 0.1
2014-Oct-22 08:33N 51°25' E 003°37'0 0.0
2014-Oct-22 07:33N 51°25' E 003°37'0 0.0
2014-Oct-22 06:21N 51°25' E 003°37'2 3.0
2014-Oct-22 05:34N 51°26' E 003°40'1111.0
2014-Oct-22 04:33N 51°23' E 003°57'9 9.1
2014-Oct-22 03:33N 51°24' E 004°11'5 5.0
2014-Oct-22 02:34N 51°21' E 004°17'0 0.0
2014-Oct-22 01:34N 51°21' E 004°17'4 4.4
2014-Oct-22 00:33N 51°17' E 004°21'1 0.8
2014-Oct-21 23:14N 51°16' E 004°20'0 0.0
2014-Oct-21 22:32N 51°16' E 004°20'0 0.0
2014-Oct-21 21:32N 51°16' E 004°20'0 0.0
2014-Oct-21 20:32N 51°16' E 004°20'0 0.0
2014-Oct-21 19:26N 51°16' E 004°20'0 0.0
2014-Oct-21 17:32N 51°16' E 004°20'0 0.0
2014-Oct-21 16:32N 51°16' E 004°20'0 0.0
2014-Oct-21 15:32N 51°16' E 004°20'0 0.0
2014-Oct-21 14:14N 51°16' E 004°20'0 0.0
2014-Oct-21 13:08N 51°16' E 004°20'0 0.0
2014-Oct-21 12:32N 51°16' E 004°20'0 0.0
2014-Oct-21 11:26N 51°16' E 004°20'0 0.0
2014-Oct-21 10:26N 51°16' E 004°20'0 0.0
2014-Oct-21 09:26N 51°16' E 004°20'0 0.0
2014-Oct-21 08:32N 51°16' E 004°20'0 0.0
2014-Oct-21 07:32N 51°16' E 004°20'0 0.0
2014-Oct-21 06:32N 51°16' E 004°20'0 0.0
2014-Oct-21 05:32N 51°16' E 004°20'0 0.0
2014-Oct-21 04:26N 51°16' E 004°20'0 0.0
2014-Oct-21 03:32N 51°16' E 004°20'0 0.0
2014-Oct-21 02:26N 51°16' E 004°20'1 0.6
2014-Oct-21 01:33N 51°16' E 004°20'1 0.8
2014-Oct-21 00:34N 51°17' E 004°19'9 8.6
2014-Oct-20 23:33N 51°23' E 004°10'8 8.1
2014-Oct-20 22:33N 51°24' E 003°57'9 9.2
2014-Oct-20 21:33N 51°23' E 003°43'8 8.2
2014-Oct-20 20:33N 51°25' E 003°30'10 9.9
2014-Oct-20 19:31N 51°24' E 003°13'1111.3
2014-Oct-20 18:32N 51°22' E 002°56'9 9.3
2014-Oct-20 17:33N 51°22' E 002°41'3 2.8
2014-Oct-20 16:32N 51°25' E 002°39'0 0.0
2014-Oct-20 15:32N 51°25' E 002°39'0 0.0
2014-Oct-20 14:32N 51°25' E 002°39'0 0.0
2014-Oct-20 13:23N 51°25' E 002°39'0 0.0
2014-Oct-20 12:32N 51°25' E 002°39'0 0.0
2014-Oct-20 11:29N 51°25' E 002°39'0 0.0
2014-Oct-20 10:32N 51°25' E 002°39'0 0.0
2014-Oct-20 09:32N 51°25' E 002°39'0 0.0
2014-Oct-20 08:32N 51°25' E 002°39'0 0.1
2014-Oct-20 07:32N 51°25' E 002°39'0 0.1
2014-Oct-20 06:32N 51°25' E 002°39'0 0.1
2014-Oct-20 05:17N 51°25' E 002°39'0 0.1
2014-Oct-20 04:11N 51°25' E 002°39'0 0.1
2014-Oct-20 03:32N 51°25' E 002°39'0 0.0
2014-Oct-20 02:32N 51°25' E 002°39'0 0.0
2014-Oct-20 01:32N 51°25' E 002°39'0 0.0
2014-Oct-20 00:32N 51°25' E 002°39'0 0.0
2014-Oct-19 23:29N 51°25' E 002°39'0 0.0
2014-Oct-19 22:29N 51°25' E 002°39'0 0.0
2014-Oct-19 21:32N 51°25' E 002°39'0 0.0
2014-Oct-19 20:32N 51°25' E 002°39'0 0.0
2014-Oct-19 19:29N 51°25' E 002°39'0 0.0
2014-Oct-19 18:32N 51°25' E 002°39'0 0.0
2014-Oct-19 17:29N 51°25' E 002°39'0 0.0
2014-Oct-19 16:32N 51°25' E 002°39'0 0.0
2014-Oct-19 15:32N 51°25' E 002°39'0 0.0
2014-Oct-19 14:32N 51°25' E 002°39'0 0.0
2014-Oct-19 13:32N 51°25' E 002°39'0 0.0
2014-Oct-19 12:32N 51°25' E 002°39'0 0.0
2014-Oct-19 11:32N 51°25' E 002°39'0 0.0
2014-Oct-19 10:29N 51°25' E 002°39'0 0.0
2014-Oct-19 09:32N 51°25' E 002°39'0 0.0
2014-Oct-19 08:32N 51°25' E 002°39'0 0.0
2014-Oct-19 07:29N 51°25' E 002°39'0 0.2
2014-Oct-19 06:32N 51°25' E 002°39'0 0.0
2014-Oct-19 05:32N 51°25' E 002°39'0 0.0
2014-Oct-19 04:29N 51°25' E 002°39'0 0.1
2014-Oct-19 03:14N 51°25' E 002°39'0 0.1
2014-Oct-19 02:32N 51°25' E 002°39'0 0.0
2014-Oct-19 01:26N 51°25' E 002°39'0 0.0
2014-Oct-19 00:32N 51°25' E 002°39'0 0.0
2014-Oct-18 23:32N 51°25' E 002°39'0 0.0
2014-Oct-18 22:26N 51°25' E 002°39'0 0.0
2014-Oct-18 21:11N 51°25' E 002°39'0 0.0
2014-Oct-18 20:32N 51°25' E 002°39'0 0.0
2014-Oct-18 19:23N 51°25' E 002°39'0 0.1
2014-Oct-18 17:29N 51°25' E 002°39'0 0.0
2014-Oct-18 16:32N 51°25' E 002°39'0 0.1
2014-Oct-18 15:29N 51°25' E 002°39'0 0.0
2014-Oct-18 14:32N 51°25' E 002°39'0 0.0
2014-Oct-18 13:32N 51°25' E 002°39'0 0.0
2014-Oct-18 12:29N 51°25' E 002°39'0 0.0
2014-Oct-18 11:32N 51°25' E 002°39'0 0.0
2014-Oct-18 10:23N 51°25' E 002°39'0 0.0
2014-Oct-18 09:29N 51°25' E 002°39'0 0.0
2014-Oct-18 08:32N 51°25' E 002°39'0 0.0
2014-Oct-18 07:32N 51°25' E 002°39'0 0.0
2014-Oct-18 06:29N 51°25' E 002°39'0 0.0
2014-Oct-18 05:17N 51°25' E 002°39'0 0.0
2014-Oct-18 04:17N 51°25' E 002°39'0 0.0
2014-Oct-18 03:32N 51°25' E 002°39'0 0.0
2014-Oct-18 02:20N 51°25' E 002°39'0 0.0
2014-Oct-18 01:32N 51°25' E 002°39'0 0.0
2014-Oct-18 00:26N 51°25' E 002°39'0 0.0
2014-Oct-17 23:17N 51°25' E 002°39'0 0.0
2014-Oct-17 22:29N 51°25' E 002°39'0 0.0
2014-Oct-17 21:29N 51°25' E 002°39'0 0.0
2014-Oct-17 20:32N 51°25' E 002°39'0 0.0
2014-Oct-17 19:32N 51°25' E 002°39'0 0.0
2014-Oct-17 18:20N 51°25' E 002°39'0 0.0
2014-Oct-17 17:32N 51°25' E 002°39'0 0.1
2014-Oct-17 16:32N 51°25' E 002°39'0 0.0
2014-Oct-17 15:29N 51°25' E 002°39'0 0.0
2014-Oct-17 14:24N 51°25' E 002°39'0 0.1
2014-Oct-17 13:32N 51°25' E 002°39'0 0.0
2014-Oct-17 12:29N 51°25' E 002°39'0 0.0
2014-Oct-17 11:26N 51°25' E 002°39'0 0.0
2014-Oct-17 10:29N 51°25' E 002°39'0 0.0
2014-Oct-17 09:32N 51°25' E 002°39'0 0.0
2014-Oct-17 08:32N 51°25' E 002°39'0 0.0
2014-Oct-17 07:32N 51°25' E 002°39'0 0.0
2014-Oct-17 06:32N 51°25' E 002°39'0 0.0
2014-Oct-17 05:32N 51°25' E 002°39'0 0.0
2014-Oct-17 04:32N 51°25' E 002°39'0 0.1
2014-Oct-17 03:20N 51°25' E 002°39'0 0.0
2014-Oct-17 02:29N 51°25' E 002°39'0 0.0
2014-Oct-17 01:26N 51°25' E 002°39'0 0.1
2014-Oct-17 00:26N 51°25' E 002°39'0 0.1
2014-Oct-16 23:26N 51°25' E 002°39'0 0.0
2014-Oct-16 22:29N 51°25' E 002°39'0 0.0
2014-Oct-16 21:29N 51°25' E 002°39'0 0.0
2014-Oct-16 20:32N 51°25' E 002°39'0 0.0
2014-Oct-16 19:32N 51°25' E 002°39'0 0.0
2014-Oct-16 18:32N 51°25' E 002°39'0 0.0
2014-Oct-16 17:32N 51°25' E 002°39'0 0.0
2014-Oct-16 16:29N 51°25' E 002°39'0 0.0
2014-Oct-16 15:32N 51°25' E 002°39'0 0.0
2014-Oct-16 14:32N 51°25' E 002°39'0 0.0
2014-Oct-16 13:32N 51°25' E 002°39'0 0.0
2014-Oct-16 12:24N 51°25' E 002°39'0 0.0
2014-Oct-16 11:29N 51°25' E 002°39'0 0.0
2014-Oct-16 10:32N 51°25' E 002°39'0 0.0
2014-Oct-16 09:32N 51°25' E 002°39'0 0.0
2014-Oct-16 08:32N 51°25' E 002°39'0 0.0
2014-Oct-16 07:29N 51°25' E 002°39'0 0.0
2014-Oct-16 06:32N 51°25' E 002°39'0 0.0
2014-Oct-16 05:23N 51°25' E 002°39'0 0.0
2014-Oct-16 04:29N 51°25' E 002°39'0 0.0
2014-Oct-16 03:32N 51°25' E 002°39'0 0.1
2014-Oct-16 02:32N 51°25' E 002°39'0 0.0
2014-Oct-16 01:29N 51°25' E 002°39'0 0.0
2014-Oct-16 00:32N 51°25' E 002°39'0 0.0
2014-Oct-15 23:20N 51°25' E 002°39'0 0.1
2014-Oct-15 22:08N 51°25' E 002°39'0 0.0
2014-Oct-15 21:29N 51°25' E 002°39'0 0.0
2014-Oct-15 20:32N 51°25' E 002°39'0 0.0
2014-Oct-15 19:32N 51°25' E 002°39'0 0.0
2014-Oct-15 18:29N 51°25' E 002°39'0 0.0
2014-Oct-15 17:26N 51°25' E 002°39'0 0.0
2014-Oct-15 16:29N 51°25' E 002°39'0 0.1
2014-Oct-15 15:33N 51°25' E 002°39'0 0.1
2014-Oct-15 14:31N 51°25' E 002°39'0 0.0
2014-Oct-15 13:22N 51°25' E 002°39'0 0.0
2014-Oct-15 12:29N 51°25' E 002°39'0 0.0
2014-Oct-15 11:32N 51°25' E 002°39'0 0.1
2014-Oct-15 10:32N 51°25' E 002°39'0 0.1
2014-Oct-15 09:29N 51°25' E 002°39'0 0.0
2014-Oct-15 08:26N 51°25' E 002°39'0 0.0
2014-Oct-15 07:32N 51°25' E 002°39'0 0.0
2014-Oct-15 06:32N 51°25' E 002°39'0 0.0
2014-Oct-15 05:32N 51°25' E 002°39'0 0.0
2014-Oct-15 04:32N 51°25' E 002°39'0 0.0
2014-Oct-15 03:32N 51°25' E 002°39'0 0.1
2014-Oct-15 02:32N 51°25' E 002°39'0 0.1
2014-Oct-15 01:32N 51°25' E 002°39'0 0.0
2014-Oct-15 00:23N 51°25' E 002°39'0 0.0
2014-Oct-14 23:32N 51°25' E 002°39'0 0.1
2014-Oct-14 22:26N 51°25' E 002°39'0 0.1
2014-Oct-14 21:23N 51°25' E 002°39'0 0.0
2014-Oct-14 20:29N 51°25' E 002°39'2 2.0
2014-Oct-14 19:33N 51°25' E 002°36'1111.3
2014-Oct-14 18:33N 51°19' E 002°21'1313.2
2014-Oct-14 17:33N 51°13' E 002°02'1413.9
2014-Oct-14 16:33N 51°06' E 001°43'1414.4
2014-Oct-14 15:34N 50°55' E 001°28'3812.5
2014-Oct-14 12:33N 50°28' E 000°47'1413.5
2014-Oct-14 11:33N 50°24' E 000°27'26710.3
2014-Oct-13 09:33N 48°14' W 005°31'1110.7
2014-Oct-13 08:33N 48°06' W 005°21'1111.1
2014-Oct-13 07:33N 47°57' W 005°09'  
Track history (hours):
 
Tides and Currents Weather Stations Pressure Air Temp Water Temp Dewpoint Dewpoint Depression Visibility Wind Speed Wind Dir Waves Ship Positions

Betagas

Last reported at 2014-Oct-23 01:11 UTC. Time now 2014-Oct-23 06:05 UTC.
Position N 50°26' W 000°25'.

Length 114.6 m; beam 15.7 m; draft 7.4 m.

Type: Tanker. MMSI: 304050636.

Date/timePositionNaut miles runAvg speedWind from/ knotsBaromVisibWave heightAir tempDewpointWater temp
2014-Oct-23 01:11N 50°26' W 000°25'1412.4
2014-Oct-23 00:05N 50°30' W 000°04'811.8
2014-Oct-22 23:24N 50°33' E 000°08'911.1
2014-Oct-22 22:33N 50°35' E 000°22'1010.0
2014-Oct-22 21:33N 50°39' E 000°37'10 9.9
2014-Oct-22 20:33N 50°45' E 000°49'1010.2
2014-Oct-22 19:33N 50°51' E 001°03'1211.9
2014-Oct-22 18:33N 50°58' E 001°17'1413.7
2014-Oct-22 17:33N 51°07' E 001°33'1312.8
2014-Oct-22 16:33N 51°16' E 001°48'1111.2
2014-Oct-22 15:33N 51°25' E 001°60'1110.9
2014-Oct-22 14:34N 51°21' E 002°16'10 9.6
2014-Oct-22 13:33N 51°23' E 002°31'8 7.7
2014-Oct-22 12:30N 51°23' E 002°44'1111.7
2014-Oct-22 11:33N 51°24' E 003°01'1111.2
2014-Oct-22 10:33N 51°24' E 003°19'1111.2
2014-Oct-22 09:34N 51°25' E 003°37'0 0.1
2014-Oct-22 08:33N 51°25' E 003°37'0 0.0
2014-Oct-22 07:33N 51°25' E 003°37'0 0.0
2014-Oct-22 06:21N 51°25' E 003°37'2 3.0
2014-Oct-22 05:34N 51°26' E 003°40'1111.0
2014-Oct-22 04:33N 51°23' E 003°57'9 9.1
2014-Oct-22 03:33N 51°24' E 004°11'5 5.0
2014-Oct-22 02:34N 51°21' E 004°17'0 0.0
2014-Oct-22 01:34N 51°21' E 004°17'4 4.4
2014-Oct-22 00:33N 51°17' E 004°21'1 0.8
2014-Oct-21 23:14N 51°16' E 004°20'0 0.0
2014-Oct-21 22:32N 51°16' E 004°20'0 0.0
2014-Oct-21 21:32N 51°16' E 004°20'0 0.0
2014-Oct-21 20:32N 51°16' E 004°20'0 0.0
2014-Oct-21 19:26N 51°16' E 004°20'0 0.0
2014-Oct-21 17:32N 51°16' E 004°20'0 0.0
2014-Oct-21 16:32N 51°16' E 004°20'0 0.0
2014-Oct-21 15:32N 51°16' E 004°20'0 0.0
2014-Oct-21 14:14N 51°16' E 004°20'0 0.0
2014-Oct-21 13:08N 51°16' E 004°20'0 0.0
2014-Oct-21 12:32N 51°16' E 004°20'0 0.0
2014-Oct-21 11:26N 51°16' E 004°20'0 0.0
2014-Oct-21 10:26N 51°16' E 004°20'0 0.0
2014-Oct-21 09:26N 51°16' E 004°20'0 0.0
2014-Oct-21 08:32N 51°16' E 004°20'0 0.0
2014-Oct-21 07:32N 51°16' E 004°20'0 0.0
2014-Oct-21 06:32N 51°16' E 004°20'0 0.0
2014-Oct-21 05:32N 51°16' E 004°20'0 0.0
2014-Oct-21 04:26N 51°16' E 004°20'0 0.0
2014-Oct-21 03:32N 51°16' E 004°20'0 0.0
2014-Oct-21 02:26N 51°16' E 004°20'1 0.6
2014-Oct-21 01:33N 51°16' E 004°20'1 0.8
2014-Oct-21 00:34N 51°17' E 004°19'9 8.6
2014-Oct-20 23:33N 51°23' E 004°10'8 8.1
2014-Oct-20 22:33N 51°24' E 003°57'9 9.2
2014-Oct-20 21:33N 51°23' E 003°43'8 8.2
2014-Oct-20 20:33N 51°25' E 003°30'10 9.9
2014-Oct-20 19:31N 51°24' E 003°13'1111.3
2014-Oct-20 18:32N 51°22' E 002°56'9 9.3
2014-Oct-20 17:33N 51°22' E 002°41'3 2.8
2014-Oct-20 16:32N 51°25' E 002°39'0 0.0
2014-Oct-20 15:32N 51°25' E 002°39'0 0.0
2014-Oct-20 14:32N 51°25' E 002°39'0 0.0
2014-Oct-20 13:23N 51°25' E 002°39'0 0.0
2014-Oct-20 12:32N 51°25' E 002°39'0 0.0
2014-Oct-20 11:29N 51°25' E 002°39'0 0.0
2014-Oct-20 10:32N 51°25' E 002°39'0 0.0
2014-Oct-20 09:32N 51°25' E 002°39'0 0.0
2014-Oct-20 08:32N 51°25' E 002°39'0 0.1
2014-Oct-20 07:32N 51°25' E 002°39'0 0.1
2014-Oct-20 06:32N 51°25' E 002°39'0 0.1
2014-Oct-20 05:17N 51°25' E 002°39'0 0.1
2014-Oct-20 04:11N 51°25' E 002°39'0 0.1
2014-Oct-20 03:32N 51°25' E 002°39'0 0.0
2014-Oct-20 02:32N 51°25' E 002°39'0 0.0
2014-Oct-20 01:32N 51°25' E 002°39'0 0.0
2014-Oct-20 00:32N 51°25' E 002°39'0 0.0
2014-Oct-19 23:29N 51°25' E 002°39'0 0.0
2014-Oct-19 22:29N 51°25' E 002°39'0 0.0
2014-Oct-19 21:32N 51°25' E 002°39'0 0.0
2014-Oct-19 20:32N 51°25' E 002°39'0 0.0
2014-Oct-19 19:29N 51°25' E 002°39'0 0.0
2014-Oct-19 18:32N 51°25' E 002°39'0 0.0
2014-Oct-19 17:29N 51°25' E 002°39'0 0.0
2014-Oct-19 16:32N 51°25' E 002°39'0 0.0
2014-Oct-19 15:32N 51°25' E 002°39'0 0.0
2014-Oct-19 14:32N 51°25' E 002°39'0 0.0
2014-Oct-19 13:32N 51°25' E 002°39'0 0.0
2014-Oct-19 12:32N 51°25' E 002°39'0 0.0
2014-Oct-19 11:32N 51°25' E 002°39'0 0.0
2014-Oct-19 10:29N 51°25' E 002°39'0 0.0
2014-Oct-19 09:32N 51°25' E 002°39'0 0.0
2014-Oct-19 08:32N 51°25' E 002°39'0 0.0
2014-Oct-19 07:29N 51°25' E 002°39'0 0.2
2014-Oct-19 06:32N 51°25' E 002°39'0 0.0
2014-Oct-19 05:32N 51°25' E 002°39'0 0.0
2014-Oct-19 04:29N 51°25' E 002°39'0 0.1
2014-Oct-19 03:14N 51°25' E 002°39'0 0.1
2014-Oct-19 02:32N 51°25' E 002°39'0 0.0
2014-Oct-19 01:26N 51°25' E 002°39'0 0.0
2014-Oct-19 00:32N 51°25' E 002°39'0 0.0
2014-Oct-18 23:32N 51°25' E 002°39'0 0.0
2014-Oct-18 22:26N 51°25' E 002°39'0 0.0
2014-Oct-18 21:11N 51°25' E 002°39'0 0.0
2014-Oct-18 20:32N 51°25' E 002°39'0 0.0
2014-Oct-18 19:23N 51°25' E 002°39'0 0.1
2014-Oct-18 17:29N 51°25' E 002°39'0 0.0
2014-Oct-18 16:32N 51°25' E 002°39'0 0.1
2014-Oct-18 15:29N 51°25' E 002°39'0 0.0
2014-Oct-18 14:32N 51°25' E 002°39'0 0.0
2014-Oct-18 13:32N 51°25' E 002°39'0 0.0
2014-Oct-18 12:29N 51°25' E 002°39'0 0.0
2014-Oct-18 11:32N 51°25' E 002°39'0 0.0
2014-Oct-18 10:23N 51°25' E 002°39'0 0.0
2014-Oct-18 09:29N 51°25' E 002°39'0 0.0
2014-Oct-18 08:32N 51°25' E 002°39'0 0.0
2014-Oct-18 07:32N 51°25' E 002°39'0 0.0
2014-Oct-18 06:29N 51°25' E 002°39'0 0.0
2014-Oct-18 05:17N 51°25' E 002°39'0 0.0
2014-Oct-18 04:17N 51°25' E 002°39'0 0.0
2014-Oct-18 03:32N 51°25' E 002°39'0 0.0
2014-Oct-18 02:20N 51°25' E 002°39'0 0.0
2014-Oct-18 01:32N 51°25' E 002°39'0 0.0
2014-Oct-18 00:26N 51°25' E 002°39'0 0.0
2014-Oct-17 23:17N 51°25' E 002°39'0 0.0
2014-Oct-17 22:29N 51°25' E 002°39'0 0.0
2014-Oct-17 21:29N 51°25' E 002°39'0 0.0
2014-Oct-17 20:32N 51°25' E 002°39'0 0.0
2014-Oct-17 19:32N 51°25' E 002°39'0 0.0
2014-Oct-17 18:20N 51°25' E 002°39'0 0.0
2014-Oct-17 17:32N 51°25' E 002°39'0 0.1
2014-Oct-17 16:32N 51°25' E 002°39'0 0.0
2014-Oct-17 15:29N 51°25' E 002°39'0 0.0
2014-Oct-17 14:24N 51°25' E 002°39'0 0.1
2014-Oct-17 13:32N 51°25' E 002°39'0 0.0
2014-Oct-17 12:29N 51°25' E 002°39'0 0.0
2014-Oct-17 11:26N 51°25' E 002°39'0 0.0
2014-Oct-17 10:29N 51°25' E 002°39'0 0.0
2014-Oct-17 09:32N 51°25' E 002°39'0 0.0
2014-Oct-17 08:32N 51°25' E 002°39'0 0.0
2014-Oct-17 07:32N 51°25' E 002°39'0 0.0
2014-Oct-17 06:32N 51°25' E 002°39'0 0.0
2014-Oct-17 05:32N 51°25' E 002°39'0 0.0
2014-Oct-17 04:32N 51°25' E 002°39'0 0.1
2014-Oct-17 03:20N 51°25' E 002°39'0 0.0
2014-Oct-17 02:29N 51°25' E 002°39'0 0.0
2014-Oct-17 01:26N 51°25' E 002°39'0 0.1
2014-Oct-17 00:26N 51°25' E 002°39'0 0.1
2014-Oct-16 23:26N 51°25' E 002°39'0 0.0
2014-Oct-16 22:29N 51°25' E 002°39'0 0.0
2014-Oct-16 21:29N 51°25' E 002°39'0 0.0
2014-Oct-16 20:32N 51°25' E 002°39'0 0.0
2014-Oct-16 19:32N 51°25' E 002°39'0 0.0
2014-Oct-16 18:32N 51°25' E 002°39'0 0.0
2014-Oct-16 17:32N 51°25' E 002°39'0 0.0
2014-Oct-16 16:29N 51°25' E 002°39'0 0.0
2014-Oct-16 15:32N 51°25' E 002°39'0 0.0
2014-Oct-16 14:32N 51°25' E 002°39'0 0.0
2014-Oct-16 13:32N 51°25' E 002°39'0 0.0
2014-Oct-16 12:24N 51°25' E 002°39'0 0.0
2014-Oct-16 11:29N 51°25' E 002°39'0 0.0
2014-Oct-16 10:32N 51°25' E 002°39'0 0.0
2014-Oct-16 09:32N 51°25' E 002°39'0 0.0
2014-Oct-16 08:32N 51°25' E 002°39'0 0.0
2014-Oct-16 07:29N 51°25' E 002°39'0 0.0
2014-Oct-16 06:32N 51°25' E 002°39'0 0.0
2014-Oct-16 05:23N 51°25' E 002°39'0 0.0
2014-Oct-16 04:29N 51°25' E 002°39'0 0.0
2014-Oct-16 03:32N 51°25' E 002°39'0 0.1
2014-Oct-16 02:32N 51°25' E 002°39'0 0.0
2014-Oct-16 01:29N 51°25' E 002°39'0 0.0
2014-Oct-16 00:32N 51°25' E 002°39'0 0.0
2014-Oct-15 23:20N 51°25' E 002°39'0 0.1
2014-Oct-15 22:08N 51°25' E 002°39'0 0.0
2014-Oct-15 21:29N 51°25' E 002°39'0 0.0
2014-Oct-15 20:32N 51°25' E 002°39'0 0.0
2014-Oct-15 19:32N 51°25' E 002°39'0 0.0
2014-Oct-15 18:29N 51°25' E 002°39'0 0.0
2014-Oct-15 17:26N 51°25' E 002°39'0 0.0
2014-Oct-15 16:29N 51°25' E 002°39'0 0.1
2014-Oct-15 15:33N 51°25' E 002°39'0 0.1
2014-Oct-15 14:31N 51°25' E 002°39'0 0.0
2014-Oct-15 13:22N 51°25' E 002°39'0 0.0
2014-Oct-15 12:29N 51°25' E 002°39'0 0.0
2014-Oct-15 11:32N 51°25' E 002°39'0 0.1
2014-Oct-15 10:32N 51°25' E 002°39'0 0.1
2014-Oct-15 09:29N 51°25' E 002°39'0 0.0
2014-Oct-15 08:26N 51°25' E 002°39'0 0.0
2014-Oct-15 07:32N 51°25' E 002°39'0 0.0
2014-Oct-15 06:32N 51°25' E 002°39'0 0.0
2014-Oct-15 05:32N 51°25' E 002°39'0 0.0
2014-Oct-15 04:32N 51°25' E 002°39'0 0.0
2014-Oct-15 03:32N 51°25' E 002°39'0 0.1
2014-Oct-15 02:32N 51°25' E 002°39'0 0.1
2014-Oct-15 01:32N 51°25' E 002°39'0 0.0
2014-Oct-15 00:23N 51°25' E 002°39'0 0.0
2014-Oct-14 23:32N 51°25' E 002°39'0 0.1
2014-Oct-14 22:26N 51°25' E 002°39'0 0.1
2014-Oct-14 21:23N 51°25' E 002°39'0 0.0
2014-Oct-14 20:29N 51°25' E 002°39'2 2.0
2014-Oct-14 19:33N 51°25' E 002°36'1111.3
2014-Oct-14 18:33N 51°19' E 002°21'1313.2
2014-Oct-14 17:33N 51°13' E 002°02'1413.9
2014-Oct-14 16:33N 51°06' E 001°43'1414.4
2014-Oct-14 15:34N 50°55' E 001°28'3812.5
2014-Oct-14 12:33N 50°28' E 000°47'1413.5
2014-Oct-14 11:33N 50°24' E 000°27'26710.3
2014-Oct-13 09:33N 48°14' W 005°31'1110.7
2014-Oct-13 08:33N 48°06' W 005°21'1111.1
2014-Oct-13 07:33N 47°57' W 005°09'  

Dump ship's entire track history